Time;durP1;ratioP1;P1;durP2;ratioP2;P2;SDS_P1;SDS_P2;PMS_P1;PMS_P2;Temp;Humidity;BMP_temperature;BMP_pressure;BME280_temperature;BME280_humidity;BME280_pressure;Samples;Min_cycle;Max_cycle;Signal;HPM_P1;HPM_P2
2022/11/30 04:11:31;;;;;;;8.80;2.20;;;;;;;-2.75;63.84;100637.88;30741;1324;3012784;-62
2022/11/30 04:14:01;;;;;;;4.80;1.80;;;;;;;-2.71;64.07;100640.66;24468;1339;3028390;-69
2022/11/30 04:16:29;;;;;;;3.90;1.70;;;;;;;-2.64;64.15;100638.86;24404;1342;3025522;-64
2022/11/30 04:18:59;;;;;;;6.00;1.70;;;;;;;-2.47;63.96;100632.19;24432;1343;3049718;-64
2022/11/30 04:21:28;;;;;;;5.10;2.40;;;;;;;-2.33;63.54;100627.19;24442;1343;3025254;-63
2022/11/30 04:23:55;;;;;;;3.60;1.60;;;;;;;-2.34;62.84;100616.89;23965;1333;3052215;-68
2022/11/30 04:26:25;;;;;;;6.10;2.40;;;;;;;-2.30;62.96;100621.73;24477;1336;3053122;-64
2022/11/30 04:28:58;;;;;;;6.90;1.80;;;;;;;-2.25;62.82;100617.16;24407;1337;3028209;-64
2022/11/30 04:31:27;;;;;;;5.30;1.80;;;;;;;-2.28;62.66;100618.48;24483;1335;3028032;-64
2022/11/30 04:33:56;;;;;;;4.50;1.60;;;;;;;-2.41;62.84;100617.67;24445;1340;3052718;-63
2022/11/30 04:36:25;;;;;;;3.50;1.90;;;;;;;-2.43;62.48;100621.09;25231;1332;3028611;-67
2022/11/30 04:38:54;;;;;;;8.30;2.10;;;;;;;-2.32;62.76;100625.14;25246;1333;3050124;-65
2022/11/30 04:41:23;;;;;;;6.40;2.10;;;;;;;-2.26;62.63;100617.66;24728;1336;3028767;-67
2022/11/30 04:44:17;;;;;;;6.90;1.90;;;;;;;-2.21;62.27;100613.08;24763;1324;3056980;-63
2022/11/30 04:46:47;;;;;;;6.40;1.80;;;;;;;-2.07;62.34;100610.46;24478;1337;3025806;-65
2022/11/30 04:49:16;;;;;;;5.40;2.20;;;;;;;-2.02;62.08;100606.55;24471;1326;3027979;-65
2022/11/30 04:51:45;;;;;;;6.20;2.10;;;;;;;-2.03;61.76;100612.73;24531;1337;3056358;-69
2022/11/30 04:54:14;;;;;;;5.20;2.30;;;;;;;-2.04;62.02;100615.46;24455;1332;3026008;-68
2022/11/30 04:56:43;;;;;;;5.50;1.80;;;;;;;-2.01;61.68;100613.77;24517;1334;3049763;-66
2022/11/30 04:59:14;;;;;;;8.50;2.20;;;;;;;-1.94;61.81;100619.16;24479;1321;3025377;-67
2022/11/30 05:01:43;;;;;;;5.90;1.80;;;;;;;-2.05;61.57;100622.84;24553;1326;3028158;-66
2022/11/30 05:04:11;;;;;;;5.80;1.80;;;;;;;-2.16;61.90;100617.58;24477;1336;3049378;-64
2022/11/30 05:06:40;;;;;;;6.90;2.00;;;;;;;-2.01;61.99;100615.14;24506;1329;3028093;-64
2022/11/30 05:09:10;;;;;;;5.50;2.10;;;;;;;-2.08;61.75;100616.45;24458;1339;3068809;-65
2022/11/30 05:11:38;;;;;;;3.10;1.80;;;;;;;-1.97;61.80;100614.33;24525;1332;3026439;-63
2022/11/30 05:14:07;;;;;;;4.60;1.90;;;;;;;-1.97;61.71;100615.02;24518;1339;3048765;-68
2022/11/30 05:16:37;;;;;;;5.40;2.30;;;;;;;-1.93;62.01;100623.29;24464;1339;3025883;-61
2022/11/30 05:19:31;;;;;;;2.80;1.70;;;;;;;-1.94;61.84;100630.50;24493;1333;3050242;-65
2022/11/30 05:22:00;;;;;;;4.00;1.70;;;;;;;-1.94;61.88;100639.60;24467;1327;3026248;-66
2022/11/30 05:24:29;;;;;;;5.40;2.30;;;;;;;-1.93;61.99;100640.29;24534;1331;3069062;-67
2022/11/30 05:26:58;;;;;;;6.40;2.00;;;;;;;-1.97;61.77;100643.52;24531;1334;3026190;-67
2022/11/30 05:29:29;;;;;;;5.30;1.70;;;;;;;-1.89;61.49;100645.14;24532;1333;3049110;-65
2022/11/30 05:31:58;;;;;;;3.40;1.70;;;;;;;-1.91;61.42;100647.87;24492;1324;3028337;-63
2022/11/30 05:34:27;;;;;;;4.40;1.90;;;;;;;-1.91;61.43;100645.81;24524;1333;3051111;-65
2022/11/30 05:36:56;;;;;;;4.60;1.70;;;;;;;-1.85;61.30;100651.20;24529;1336;3025933;-63
2022/11/30 05:39:25;;;;;;;3.80;2.10;;;;;;;-1.81;61.25;100652.42;24511;1325;3051158;-65
2022/11/30 05:41:54;;;;;;;12.70;2.10;;;;;;;-1.75;61.16;100645.60;24464;1331;3028489;-66
2022/11/30 05:44:24;;;;;;;6.10;2.20;;;;;;;-1.89;61.27;100650.46;24506;1332;3053217;-67
2022/11/30 05:46:53;;;;;;;5.80;2.40;;;;;;;-2.03;61.70;100652.90;24522;1337;3025658;-66
2022/11/30 05:49:22;;;;;;;6.90;2.40;;;;;;;-1.93;61.35;100653.35;24487;1329;3026547;-70
2022/11/30 05:51:51;;;;;;;3.90;2.00;;;;;;;-1.82;60.97;100648.80;24527;1324;3053168;-64
2022/11/30 05:54:20;;;;;;;5.20;2.00;;;;;;;-1.85;60.88;100648.45;24560;1337;3027223;-63
2022/11/30 05:56:49;;;;;;;4.20;1.60;;;;;;;-1.79;60.84;100640.25;24558;1324;3051891;-66
2022/11/30 05:59:18;;;;;;;8.20;1.90;;;;;;;-1.69;60.29;100645.66;24585;1330;3026705;-63
2022/11/30 06:01:50;;;;;;;6.80;2.40;;;;;;;-1.62;60.18;100648.80;24574;1333;3055201;-65
2022/11/30 06:04:23;;;;;;;8.50;2.00;;;;;;;-1.67;59.86;100646.89;24667;1333;3051614;-63
2022/11/30 06:06:54;;;;;;;5.10;1.40;;;;;;;-1.60;60.17;100646.59;24517;1331;3026721;-65
2022/11/30 06:09:23;;;;;;;6.10;2.10;;;;;;;-1.49;59.74;100651.48;24594;1336;3056597;-67
2022/11/30 06:11:52;;;;;;;4.80;1.50;;;;;;;-1.57;59.30;100652.63;24600;1331;3026525;-66
2022/11/30 06:14:21;;;;;;;5.90;1.80;;;;;;;-1.57;59.25;100648.50;24629;1330;3049260;-67
2022/11/30 06:16:50;;;;;;;4.00;1.80;;;;;;;-1.60;59.18;100647.44;24598;1323;3026735;-66
2022/11/30 06:19:19;;;;;;;10.40;2.20;;;;;;;-1.68;58.96;100648.41;24573;1331;3069138;-66
2022/11/30 06:21:48;;;;;;;12.40;2.00;;;;;;;-1.60;58.74;100648.32;24589;1324;3030130;-63
2022/11/30 06:24:18;;;;;;;8.40;2.00;;;;;;;-1.55;58.67;100643.02;24645;1331;3049327;-68
2022/11/30 06:26:47;;;;;;;4.70;2.30;;;;;;;-1.57;58.76;100645.23;24621;1321;3027013;-64
2022/11/30 06:29:16;;;;;;;6.10;2.40;;;;;;;-1.45;58.48;100651.01;24521;1331;3050510;-64
2022/11/30 06:31:45;;;;;;;6.00;2.30;;;;;;;-1.40;58.27;100646.74;24619;1324;3026515;-66
2022/11/30 06:34:14;;;;;;;7.10;1.80;;;;;;;-1.35;57.91;100654.51;24575;1331;3050929;-67
2022/11/30 06:36:42;;;;;;;5.80;2.30;;;;;;;-1.45;58.07;100652.02;24615;1324;3028527;-66
2022/11/30 06:39:11;;;;;;;4.80;1.50;;;;;;;-1.27;58.16;100654.90;24572;1331;3052715;-67
2022/11/30 06:41:40;;;;;;;9.20;2.20;;;;;;;-1.28;57.72;100655.94;24647;1336;3026567;-70
2022/11/30 06:44:09;;;;;;;10.50;1.70;;;;;;;-1.23;57.40;100653.21;24678;1338;3052119;-65
2022/11/30 06:46:39;;;;;;;10.20;2.00;;;;;;;-1.16;57.39;100653.44;24624;1333;3026034;-67
2022/11/30 06:49:08;;;;;;;5.50;1.90;;;;;;;-1.10;57.14;100651.23;24690;1333;3028675;-68
2022/11/30 06:51:38;;;;;;;6.60;2.40;;;;;;;-1.03;56.89;100660.05;24661;1324;3052126;-66
2022/11/30 06:54:33;;;;;;;9.60;1.60;;;;;;;-1.08;56.84;100664.49;24658;1331;3053691;-68
2022/11/30 06:57:02;;;;;;;4.50;1.80;;;;;;;-0.92;56.40;100660.63;24658;1331;3024941;-70
2022/11/30 06:59:31;;;;;;;8.60;2.00;;;;;;;-0.96;56.08;100660.95;24605;1334;3051703;-72
2022/11/30 07:02:00;;;;;;;4.00;1.60;;;;;;;-0.87;56.23;100658.77;24543;1324;3026224;-69
2022/11/30 07:04:54;;;;;;;5.40;1.70;;;;;;;-0.84;55.79;100659.81;24631;1323;3056560;-64
2022/11/30 07:07:23;;;;;;;4.70;1.60;;;;;;;-0.80;55.59;100657.76;24563;1331;3028316;-68
2022/11/30 07:09:52;;;;;;;7.80;2.20;;;;;;;-0.77;55.64;100656.06;24512;1324;3050071;-65
2022/11/30 07:12:20;;;;;;;7.70;1.70;;;;;;;-0.67;55.22;100655.42;24512;1323;3028861;-66
2022/11/30 07:15:15;;;;;;;5.30;1.80;;;;;;;-0.60;54.85;100650.80;24504;1334;3069238;-69
2022/11/30 07:17:44;;;;;;;6.60;1.60;;;;;;;-0.53;54.79;100652.03;24619;1336;3025763;-66
2022/11/30 07:20:15;;;;;;;5.00;1.60;;;;;;;-0.42;54.09;100645.36;24606;1323;3026454;-72
2022/11/30 07:22:44;;;;;;;6.30;2.10;;;;;;;-0.42;54.15;100645.36;24528;1333;3028744;-65
2022/11/30 07:28:02;;;;;;;6.70;1.70;;;;;;;-0.27;53.63;100657.80;24433;1332;3057025;-69
2022/11/30 07:30:30;;;;;;;8.40;1.70;;;;;;;-0.18;52.79;100659.70;24486;1333;3026276;-67
2022/11/30 07:32:59;;;;;;;10.30;2.20;;;;;;;-0.15;52.52;100660.42;24486;1333;3049293;-66
2022/11/30 07:35:28;;;;;;;8.30;1.80;;;;;;;-0.16;52.31;100655.95;24464;1332;3028897;-66
2022/11/30 07:37:58;;;;;;;5.70;2.10;;;;;;;-0.01;52.11;100654.08;24572;1326;3067351;-69
2022/11/30 07:40:27;;;;;;;6.50;2.30;;;;;;;0.14;51.84;100653.23;24495;1326;3028305;-66
2022/11/30 07:42:56;;;;;;;4.90;1.90;;;;;;;0.13;51.58;100657.01;24551;1326;3048724;-69
2022/11/30 07:45:25;;;;;;;6.90;2.00;;;;;;;0.04;51.06;100658.38;24500;1332;3029627;-68
2022/11/30 07:47:54;;;;;;;5.60;1.80;;;;;;;-0.15;51.65;100650.42;24468;1332;3026424;-66
2022/11/30 07:50:24;;;;;;;5.40;1.90;;;;;;;-0.07;51.65;100643.73;24460;1333;3049697;-65
2022/11/30 07:52:53;;;;;;;5.40;1.90;;;;;;;0.01;51.64;100641.85;24493;1326;3028273;-67
2022/11/30 07:55:22;;;;;;;7.10;2.10;;;;;;;0.20;51.29;100636.86;24471;1332;3051815;-68
2022/11/30 07:57:51;;;;;;;7.30;2.20;;;;;;;0.19;50.88;100633.76;24475;1332;3028633;-66
2022/11/30 08:00:21;;;;;;;7.20;1.90;;;;;;;0.18;50.38;100633.24;24467;1331;3029169;-65
2022/11/30 08:02:50;;;;;;;6.70;1.90;;;;;;;0.39;50.59;100632.90;24518;1326;3027075;-64
2022/11/30 08:05:19;;;;;;;6.30;2.00;;;;;;;0.51;50.36;100628.41;24500;1325;3048882;-64
2022/11/30 08:07:54;;;;;;;5.50;2.20;;;;;;;0.41;49.88;100629.62;24507;1315;3028152;-66
2022/11/30 08:10:23;;;;;;;5.80;1.50;;;;;;;0.33;49.89;100630.84;24510;1334;3053017;-63
2022/11/30 08:12:52;;;;;;;4.50;1.70;;;;;;;0.37;49.87;100631.87;24479;1333;3031214;-67
2022/11/30 08:15:21;;;;;;;13.60;1.90;;;;;;;0.39;49.46;100628.95;24561;1333;3050778;-71
2022/11/30 08:17:53;;;;;;;3.30;1.60;;;;;;;0.14;49.59;100621.18;24566;1331;3028585;-67
2022/11/30 08:20:22;;;;;;;6.90;1.90;;;;;;;0.35;49.70;100616.87;24508;1328;3053175;-69
2022/11/30 08:22:51;;;;;;;11.50;1.90;;;;;;;0.52;49.43;100613.42;24497;1323;3028818;-66
2022/11/30 08:25:20;;;;;;;7.90;2.20;;;;;;;0.55;49.48;100614.79;24483;1333;3051752;-66
2022/11/30 08:27:49;;;;;;;7.90;2.00;;;;;;;0.68;48.48;100614.60;24562;1323;3028780;-64
2022/11/30 08:30:18;;;;;;;6.10;2.10;;;;;;;0.84;48.32;100608.17;24478;1334;3054719;-64
2022/11/30 08:32:47;;;;;;;11.00;2.30;;;;;;;1.05;48.31;100603.11;24556;1324;3028453;-64
2022/11/30 08:35:18;;;;;;;5.10;2.00;;;;;;;1.17;47.93;100603.09;24507;1340;3050954;-66
2022/11/30 08:37:47;;;;;;;13.40;1.70;;;;;;;1.16;47.41;100609.97;24491;1333;3028661;-68
2022/11/30 08:40:16;;;;;;;7.20;1.70;;;;;;;1.26;46.88;100613.05;24491;1331;3028090;-62
2022/11/30 08:42:45;;;;;;;5.60;1.70;;;;;;;1.39;46.88;100602.46;24440;1331;3050097;-63
2022/11/30 08:45:14;;;;;;;10.20;2.40;;;;;;;1.20;46.99;100598.40;24460;1323;3025925;-64
2022/11/30 08:47:43;;;;;;;13.10;2.40;;;;;;;1.05;46.60;100598.11;24489;1333;3069356;-64
2022/11/30 08:50:12;;;;;;;4.10;1.80;;;;;;;1.11;46.21;100593.77;24487;1329;3028568;-65
2022/11/30 08:52:41;;;;;;;5.00;1.50;;;;;;;1.05;46.12;100596.39;24555;1331;3049138;-63
2022/11/30 08:55:10;;;;;;;8.90;2.20;;;;;;;1.26;45.88;100593.90;24465;1337;3026287;-63
2022/11/30 08:57:39;;;;;;;6.70;1.70;;;;;;;1.33;45.38;100593.16;24583;1326;3026315;-63
2022/11/30 09:00:09;;;;;;;8.30;2.40;;;;;;;1.46;45.86;100596.73;24467;1331;3048668;-63
2022/11/30 09:02:38;;;;;;;7.00;2.00;;;;;;;1.56;45.48;100601.67;24497;1334;3026142;-65
2022/11/30 09:05:07;;;;;;;5.00;1.70;;;;;;;1.55;45.52;100608.95;24518;1325;3028840;-64
2022/11/30 09:07:37;;;;;;;7.20;1.90;;;;;;;1.53;45.69;100607.74;24551;1324;3049467;-64
2022/11/30 09:10:06;;;;;;;8.90;2.20;;;;;;;1.50;45.82;100611.22;24480;1324;3028233;-64
2022/11/30 09:12:37;;;;;;;3.90;1.80;;;;;;;1.51;45.99;100613.63;24503;1330;3052307;-64
2022/11/30 09:15:07;;;;;;;9.90;2.20;;;;;;;1.63;45.92;100613.73;24472;1326;3026823;-62
2022/11/30 09:17:36;;;;;;;13.70;1.60;;;;;;;1.70;45.16;100609.90;24499;1331;3026458;-61
2022/11/30 09:20:06;;;;;;;10.60;1.90;;;;;;;1.67;45.41;100608.20;24518;1324;3028539;-62
2022/11/30 09:22:35;;;;;;;6.30;1.70;;;;;;;1.77;45.01;100603.98;24526;1333;3049984;-63
2022/11/30 09:25:05;;;;;;;7.20;2.30;;;;;;;1.80;45.20;100598.60;24492;1337;3027956;-67
2022/11/30 09:27:34;;;;;;;6.90;2.00;;;;;;;1.82;45.06;100591.35;24471;1332;3031591;-66
2022/11/30 09:30:04;;;;;;;13.10;2.10;;;;;;;1.83;45.01;100592.54;24510;1324;3028649;-62
2022/11/30 09:32:33;;;;;;;6.60;1.90;;;;;;;1.89;44.90;100589.21;24465;1325;3069071;-62
2022/11/30 09:35:02;;;;;;;7.60;2.10;;;;;;;1.81;44.95;100590.48;24478;1324;3028246;-69
2022/11/30 09:37:31;;;;;;;6.80;2.20;;;;;;;1.91;45.12;100582.64;24540;1334;3050542;-64
2022/11/30 09:40:03;;;;;;;14.10;2.60;;;;;;;1.95;45.07;100583.65;24501;1331;3026642;-68
2022/11/30 09:42:46;;;;;;;6.90;1.80;;;;;;;2.02;45.13;100577.54;24513;1331;3025965;-62
2022/11/30 09:45:20;;;;;;;8.60;1.70;;;;;;;1.99;45.16;100578.08;24499;1336;3056448;-64
2022/11/30 09:48:17;;;;;;;7.00;2.00;;;;;;;1.91;45.34;100579.70;24459;1324;3051482;-64
2022/11/30 09:50:46;;;;;;;14.60;1.80;;;;;;;2.04;45.51;100579.26;24506;1340;3053325;-65
2022/11/30 09:53:26;;;;;;;12.20;2.10;;;;;;;2.16;45.49;100576.23;24468;1333;3028361;-64
2022/11/30 09:55:55;;;;;;;9.80;2.90;;;;;;;2.17;45.20;100575.69;24512;1329;3053172;-63
2022/11/30 09:58:30;;;;;;;9.10;1.90;;;;;;;2.15;45.36;100576.05;24471;1327;3028471;-63
2022/11/30 10:01:01;;;;;;;11.30;2.00;;;;;;;2.17;45.01;100576.56;24500;1328;3052014;-64
2022/11/30 10:03:30;;;;;;;10.80;2.20;;;;;;;2.26;45.04;100579.25;24490;1331;3029009;-63
2022/11/30 10:06:10;;;;;;;6.40;2.10;;;;;;;2.41;44.81;100581.53;24498;1326;3028523;-68
2022/11/30 10:08:58;;;;;;;4.80;1.70;;;;;;;2.56;44.77;100579.31;24495;1326;3052969;-67
2022/11/30 10:12:05;;;;;;;10.00;2.60;;;;;;;2.57;44.20;100582.07;24552;1334;3053056;-64
2022/11/30 10:15:13;;;;;;;8.50;1.90;;;;;;;2.62;44.07;100578.05;24470;1327;3050223;-66
2022/11/30 10:17:48;;;;;;;9.90;1.60;;;;;;;2.67;44.29;100584.05;24504;1326;3069248;-66
2022/11/30 10:20:23;;;;;;;9.60;2.20;;;;;;;2.79;43.75;100587.20;24511;1331;3050355;-65
2022/11/30 10:23:13;;;;;;;7.80;1.80;;;;;;;2.63;44.18;100580.80;24513;1333;3056324;-64
2022/11/30 10:25:54;;;;;;;9.40;1.80;;;;;;;2.62;44.03;100580.13;24548;1324;3051662;-62
2022/11/30 10:28:29;;;;;;;7.70;1.80;;;;;;;2.63;43.96;100575.96;24522;1331;3053312;-63
2022/11/30 10:30:59;;;;;;;11.30;1.50;;;;;;;2.55;44.15;100571.03;24535;1332;3053291;-64
2022/11/30 10:33:37;;;;;;;5.70;1.90;;;;;;;2.67;44.21;100576.44;24551;1331;3026625;-65
2022/11/30 10:36:12;;;;;;;5.40;1.80;;;;;;;2.62;44.22;100572.00;24478;1340;3049172;-66
2022/11/30 10:38:44;;;;;;;9.20;1.70;;;;;;;2.57;44.45;100572.73;24529;1324;3068952;-63
2022/11/30 10:41:19;;;;;;;9.60;2.20;;;;;;;2.74;44.83;100572.23;24515;1331;3026427;-63
2022/11/30 10:43:52;;;;;;;5.40;2.00;;;;;;;2.72;44.47;100570.51;24496;1329;3056376;-65
2022/11/30 10:46:32;;;;;;;7.90;1.70;;;;;;;2.73;44.75;100566.52;24527;1331;3026402;-64
2022/11/30 10:49:12;;;;;;;13.20;2.00;;;;;;;2.73;44.63;100562.54;24642;1315;3053377;-67
2022/11/30 10:51:42;;;;;;;6.40;1.80;;;;;;;2.73;45.13;100565.46;24460;1335;3050950;-64
2022/11/30 10:54:17;;;;;;;3.50;1.40;;;;;;;2.67;45.20;100560.19;24532;1332;3026420;-63
2022/11/30 10:56:46;;;;;;;4.60;1.90;;;;;;;2.72;45.40;100565.49;24504;1323;3047872;-64
2022/11/30 10:59:18;;;;;;;6.50;2.10;;;;;;;2.77;45.36;100563.01;24503;1324;3028428;-64
2022/11/30 11:01:47;;;;;;;8.80;2.50;;;;;;;2.88;45.14;100562.02;24529;1333;3026672;-64
2022/11/30 11:04:19;;;;;;;7.10;1.50;;;;;;;2.93;45.13;100563.88;24537;1326;3028556;-61
2022/11/30 11:06:53;;;;;;;10.60;2.00;;;;;;;3.02;44.86;100560.83;24528;1323;3026557;-61
2022/11/30 11:09:28;;;;;;;9.40;1.80;;;;;;;3.18;45.04;100563.39;24547;1331;3053245;-62
2022/11/30 11:12:21;;;;;;;11.30;2.20;;;;;;;3.20;44.74;100558.36;24526;1325;3052011;-62
2022/11/30 11:15:08;;;;;;;6.30;2.10;;;;;;;3.17;44.93;100559.95;24544;1333;3053627;-62
2022/11/30 11:17:37;;;;;;;11.20;2.10;;;;;;;3.18;44.55;100564.44;24493;1337;3051600;-65
2022/11/30 11:20:28;;;;;;;7.40;1.80;;;;;;;3.20;44.10;100565.97;24497;1333;3028072;-60
2022/11/30 11:22:58;;;;;;;9.50;2.50;;;;;;;3.18;44.26;100562.01;24480;1333;3051962;-65
2022/11/30 11:25:36;;;;;;;10.10;2.20;;;;;;;3.14;44.36;100562.23;24491;1333;3028885;-61
2022/11/30 11:28:13;;;;;;;6.10;1.70;;;;;;;3.24;44.33;100565.75;24481;1335;3051553;-64
2022/11/30 11:30:42;;;;;;;8.70;1.90;;;;;;;3.08;44.30;100563.02;24459;1331;3052407;-64
2022/11/30 11:33:11;;;;;;;9.20;1.70;;;;;;;3.02;43.99;100567.91;24513;1331;3028089;-64
2022/11/30 11:35:42;;;;;;;8.60;2.00;;;;;;;3.07;44.05;100569.94;24492;1323;3028912;-62
2022/11/30 11:38:29;;;;;;;6.50;1.80;;;;;;;3.11;43.86;100578.72;24522;1333;3052020;-60
2022/11/30 11:41:05;;;;;;;7.10;2.50;;;;;;;3.18;43.82;100578.27;24511;1323;3049911;-63
2022/11/30 11:43:35;;;;;;;12.30;1.90;;;;;;;3.15;43.96;100572.43;24475;1324;3069407;-62
2022/11/30 11:46:10;;;;;;;6.80;2.60;;;;;;;3.18;44.08;100571.54;24531;1339;3028635;-62
2022/11/30 11:48:44;;;;;;;8.90;2.20;;;;;;;3.11;44.08;100561.58;24565;1333;3056466;-61
2022/11/30 11:51:13;;;;;;;10.50;2.70;;;;;;;3.21;43.86;100557.48;24518;1324;3051701;-62
2022/11/30 11:53:48;;;;;;;7.70;2.10;;;;;;;3.25;43.72;100561.74;24511;1333;3028372;-64
2022/11/30 11:56:30;;;;;;;8.30;1.90;;;;;;;3.08;43.93;100567.50;24518;1327;3051528;-68
2022/11/30 11:59:09;;;;;;;7.70;2.20;;;;;;;3.23;44.11;100564.55;24522;1333;3052677;-67
2022/11/30 12:01:56;;;;;;;8.00;2.40;;;;;;;3.33;44.02;100566.50;24510;1324;3049796;-64
2022/11/30 12:04:47;;;;;;;13.40;2.60;;;;;;;3.24;44.45;100559.52;24550;1331;3068663;-65
2022/11/30 12:07:24;;;;;;;5.00;1.80;;;;;;;3.33;44.37;100562.69;24510;1341;3049677;-65
2022/11/30 12:10:28;;;;;;;7.70;2.40;;;;;;;3.20;44.67;100558.17;24486;1340;3055865;-63
2022/11/30 12:12:57;;;;;;;11.60;2.60;;;;;;;3.15;44.56;100562.05;24488;1327;3052942;-62
2022/11/30 12:15:44;;;;;;;6.30;2.50;;;;;;;2.97;45.12;100562.61;24561;1341;3026194;-64
2022/11/30 12:18:23;;;;;;;5.70;1.90;;;;;;;3.05;45.20;100562.52;24471;1327;3052041;-62
2022/11/30 12:20:55;;;;;;;5.30;2.00;;;;;;;2.98;45.11;100565.37;24568;1331;3052399;-63
2022/11/30 12:23:56;;;;;;;6.10;2.50;;;;;;;2.99;45.14;100565.36;24485;1338;3026661;-64
2022/11/30 12:26:33;;;;;;;8.70;2.80;;;;;;;2.92;45.09;100567.70;24570;1331;3068567;-65
2022/11/30 12:29:24;;;;;;;9.00;2.50;;;;;;;3.00;45.12;100571.23;24460;1333;3049884;-65
2022/11/30 12:32:18;;;;;;;9.80;2.50;;;;;;;3.02;45.14;100579.34;24502;1339;3056789;-63
2022/11/30 12:35:01;;;;;;;8.60;2.10;;;;;;;3.09;44.97;100577.71;24552;1330;3028268;-63
2022/11/30 12:37:42;;;;;;;5.00;2.10;;;;;;;3.10;45.22;100572.33;24474;1331;3049971;-63
2022/11/30 12:40:14;;;;;;;5.40;2.20;;;;;;;3.07;45.04;100575.47;24517;1325;3056323;-62
2022/11/30 12:43:29;;;;;;;9.60;2.70;;;;;;;3.00;45.35;100579.89;24493;1331;3026235;-64
2022/11/30 12:46:43;;;;;;;11.50;2.40;;;;;;;2.92;45.57;100573.73;24605;1334;3054088;-64
2022/11/30 12:49:21;;;;;;;9.60;2.20;;;;;;;3.03;45.66;100573.96;24461;1331;3050621;-61
2022/11/30 12:52:03;;;;;;;6.60;2.10;;;;;;;3.04;45.68;100574.99;24521;1333;3052557;-67
2022/11/30 12:54:47;;;;;;;12.20;2.70;;;;;;;3.07;46.17;100580.84;24498;1334;3049049;-66
2022/11/30 12:57:20;;;;;;;9.80;2.40;;;;;;;3.15;46.09;100581.27;24510;1324;3068516;-66
2022/11/30 12:59:55;;;;;;;11.30;2.30;;;;;;;3.14;45.92;100578.52;24566;1333;3026633;-67
2022/11/30 13:02:39;;;;;;;8.50;2.20;;;;;;;3.11;45.84;100582.36;24462;1340;3056296;-66
2022/11/30 13:05:11;;;;;;;6.10;2.30;;;;;;;3.25;45.47;100586.86;24505;1333;3050683;-65
2022/11/30 13:07:46;;;;;;;6.60;2.50;;;;;;;3.21;45.67;100582.77;24476;1333;3028840;-63
2022/11/30 13:10:29;;;;;;;6.70;2.60;;;;;;;3.14;45.77;100584.56;24513;1339;3051238;-62
2022/11/30 20:11:35;;;;;;;9.30;2.10;;;;;;;0.35;45.15;100737.35;30801;1325;3013206;-64
2022/11/30 20:14:29;;;;;;;9.40;1.90;;;;;;;0.47;45.34;100742.20;24485;1339;3068470;-63
2022/11/30 20:17:01;;;;;;;13.90;2.70;;;;;;;0.49;45.68;100740.30;24496;1339;3026399;-67
2022/11/30 20:19:30;;;;;;;9.30;2.00;;;;;;;0.57;45.46;100741.17;24488;1325;3026463;-64
2022/11/30 20:22:02;;;;;;;10.10;1.60;;;;;;;0.58;45.16;100738.41;24509;1336;3068551;-66
2022/11/30 20:24:29;;;;;;;9.80;1.80;;;;;;;0.60;45.17;100736.70;23727;1339;4720057;-64
2022/11/30 20:26:58;;;;;;;9.70;1.40;;;;;;;0.61;45.03;100739.97;24454;1339;3028512;-62
2022/11/30 20:29:27;;;;;;;6.60;1.40;;;;;;;0.67;45.13;100743.59;24575;1333;3026336;-62
2022/11/30 20:31:56;;;;;;;4.80;1.20;;;;;;;0.68;44.85;100744.30;24549;1325;3052050;-64
2022/11/30 20:34:25;;;;;;;5.00;1.10;;;;;;;0.64;45.47;100748.59;24565;1332;3025988;-67
2022/11/30 20:36:54;;;;;;;3.70;1.10;;;;;;;0.75;45.38;100749.98;24505;1331;3051550;-65
2022/11/30 20:39:23;;;;;;;5.20;1.30;;;;;;;0.72;45.39;100747.56;24476;1325;3030247;-63
2022/11/30 20:41:52;;;;;;;4.50;1.10;;;;;;;0.73;45.77;100753.61;24463;1334;3053972;-64
2022/11/30 20:44:21;;;;;;;7.80;2.00;;;;;;;0.67;45.62;100749.46;24537;1338;3026622;-61
2022/11/30 20:46:50;;;;;;;6.50;1.40;;;;;;;0.62;45.79;100753.42;24441;1329;3051457;-65
2022/11/30 20:49:20;;;;;;;5.80;1.30;;;;;;;0.71;45.28;100748.61;24563;1325;3028639;-65
2022/11/30 20:51:49;;;;;;;7.50;1.80;;;;;;;0.72;45.50;100752.56;24528;1330;3056407;-65
2022/11/30 20:54:18;;;;;;;7.20;1.60;;;;;;;0.75;45.41;100757.73;24508;1332;3028648;-65
2022/11/30 20:56:47;;;;;;;7.00;1.40;;;;;;;0.80;44.98;100757.73;24507;1339;3049326;-68
2022/11/30 20:59:17;;;;;;;7.60;1.00;;;;;;;0.83;44.97;100757.23;24533;1325;3026450;-64
2022/11/30 21:01:46;;;;;;;6.30;1.30;;;;;;;0.90;45.34;100756.02;24499;1339;3068483;-63
2022/11/30 21:04:15;;;;;;;4.10;1.90;;;;;;;0.80;45.50;100757.92;24500;1333;3028245;-66
2022/11/30 21:06:44;;;;;;;8.20;1.60;;;;;;;0.80;45.54;100757.23;24555;1340;3048502;-63
2022/11/30 21:09:16;;;;;;;4.70;1.90;;;;;;;0.85;45.79;100758.78;24451;1343;3028744;-63
2022/11/30 21:11:46;;;;;;;4.80;1.40;;;;;;;0.87;45.52;100753.25;24514;1322;3028236;-64
2022/11/30 21:14:16;;;;;;;3.80;1.60;;;;;;;0.85;45.97;100753.09;24557;1328;3025878;-63
2022/11/30 21:16:46;;;;;;;4.90;1.60;;;;;;;0.86;46.21;100752.91;24518;1333;3029258;-63
2022/11/30 21:19:15;;;;;;;4.00;1.60;;;;;;;0.87;45.29;100741.54;24541;1339;3025732;-64
2022/11/30 21:21:45;;;;;;;7.90;1.30;;;;;;;0.80;44.99;100742.90;24510;1333;3026819;-63
2022/11/30 21:24:14;;;;;;;3.80;0.90;;;;;;;0.79;44.24;100742.91;24493;1325;3025751;-63
2022/11/30 21:26:43;;;;;;;3.00;1.00;;;;;;;0.87;43.98;100745.33;24495;1334;3052759;-65
2022/11/30 21:29:14;;;;;;;7.60;1.10;;;;;;;0.87;44.36;100744.98;24453;1332;3026540;-63
2022/11/30 21:31:44;;;;;;;5.30;1.10;;;;;;;0.89;44.23;100745.33;24510;1333;3052861;-63
2022/11/30 21:34:13;;;;;;;1.90;0.70;;;;;;;0.90;43.87;100745.49;24445;1340;3028830;-63
2022/11/30 21:36:42;;;;;;;2.20;0.80;;;;;;;0.83;44.16;100741.88;24535;1331;3026422;-64
2022/11/30 21:39:12;;;;;;;2.10;1.00;;;;;;;0.95;44.04;100749.81;24557;1339;3051958;-64
2022/11/30 21:41:41;;;;;;;1.80;0.70;;;;;;;1.02;44.40;100745.65;24552;1335;3025942;-65
2022/11/30 21:44:11;;;;;;;4.20;1.00;;;;;;;0.95;44.56;100741.19;24528;1333;3026274;-68
2022/11/30 21:46:41;;;;;;;2.20;1.00;;;;;;;1.01;45.00;100739.28;24524;1334;3051939;-63
2022/11/30 21:49:10;;;;;;;6.40;1.20;;;;;;;0.92;45.35;100744.63;24475;1339;3029197;-66
2022/11/30 21:51:41;;;;;;;4.10;1.10;;;;;;;0.99;45.64;100751.01;24462;1333;3026897;-66
2022/11/30 21:54:11;;;;;;;5.10;1.30;;;;;;;1.01;45.75;100749.27;24496;1340;3025933;-63
2022/11/30 21:56:42;;;;;;;6.90;1.10;;;;;;;1.03;45.95;100748.59;24560;1339;3026335;-64
2022/11/30 21:59:13;;;;;;;7.90;1.30;;;;;;;0.98;46.13;100749.97;24446;1326;3025869;-62
2022/11/30 22:01:46;;;;;;;1.70;0.90;;;;;;;0.94;46.47;100748.25;24485;1339;3027901;-66
2022/11/30 22:04:19;;;;;;;3.70;1.20;;;;;;;0.96;46.45;100746.35;24526;1335;3056954;-65
2022/11/30 22:06:48;;;;;;;2.40;1.20;;;;;;;0.94;46.54;100746.02;24531;1331;3025713;-66
2022/11/30 22:09:17;;;;;;;2.50;1.20;;;;;;;0.97;46.48;100747.91;24498;1333;3050583;-63
2022/11/30 22:11:47;;;;;;;3.60;1.10;;;;;;;0.97;46.28;100746.86;24517;1334;3024938;-65
2022/11/30 22:14:16;;;;;;;3.70;1.20;;;;;;;0.97;46.36;100750.84;24479;1331;3028132;-64
2022/11/30 22:16:46;;;;;;;2.70;1.30;;;;;;;0.94;46.03;100751.70;24519;1331;3050591;-66
2022/11/30 22:19:15;;;;;;;2.10;1.10;;;;;;;0.86;46.34;100751.88;24453;1332;3027963;-65
2022/11/30 22:21:45;;;;;;;4.80;0.80;;;;;;;0.89;46.35;100751.19;24566;1332;3070338;-63
2022/11/30 22:24:14;;;;;;;3.30;1.50;;;;;;;0.84;46.63;100757.73;24539;1324;3026004;-63
